CRF6 weather

Quamichan Lake (Raven Field) Seaplane Base
British Columbia, Canada

Public forecast

Using degrees Celsius for public forecast. Weather courtesy of forecast.io.

METAR (pilot weather report)

Closest report is Victoria International Airport, 13.1 nm (24.3 km) SE. Retrieved 2019/07/22 10:00 UTC (50 minutes ago):

CYYJ 221000Z 00000KT 20SM FEW250 13/12 A2993 RMK CI1 CI TR SLP137

TAF (pilot weather forecast)

Closest forecast is Victoria International Airport, 13.1 nm (24.3 km) SE. Retrieved 2019/07/22 06:42 UTC (4 hours ago):

TAF TAF CYYJ 220539Z 2206/2306 VRB03KT P6SM SCT250 BECMG 2206/2208 28006KT BECMG 2213/2215 VRB03KT FM221800 12010KT P6SM SCT150 BECMG 2222/2224 22012KT BECMG 2301/2303 26010KT RMK NXT FCST BY 221200Z